Time;durP1;ratioP1;P1;durP2;ratioP2;P2;SDS_P1;SDS_P2;PMS_P1;PMS_P2;Temp;Humidity;BMP_temperature;BMP_pressure;BME280_temperature;BME280_humidity;BME280_pressure;Samples;Min_cycle;Max_cycle;Signal;HPM_P1;HPM_P2
2021/05/02 00:01:08;;;;;;;74.82;48.15;;;;;;;10.55;75.13;96219.55;1833721;77;25840;-85
2021/05/02 00:03:35;;;;;;;80.47;48.80;;;;;;;10.57;75.12;96213.39;1844530;77;28467;-85
2021/05/02 00:06:05;;;;;;;81.32;48.10;;;;;;;10.60;75.15;96216.97;1837837;77;25802;-85
2021/05/02 00:08:34;;;;;;;75.08;46.35;;;;;;;10.61;75.17;96206.47;1845731;77;25703;-85
2021/05/02 00:11:03;;;;;;;77.67;46.90;;;;;;;10.63;75.22;96201.62;1831821;77;26452;-85
2021/05/02 00:13:31;;;;;;;81.90;49.58;;;;;;;10.65;75.17;96194.11;1851124;77;26288;-86
2021/05/02 00:15:58;;;;;;;83.22;50.23;;;;;;;10.69;75.12;96188.53;1831152;77;27534;-86
2021/05/02 00:18:27;;;;;;;80.55;49.90;;;;;;;10.73;75.02;96191.05;1828398;77;25669;-86
2021/05/02 00:20:57;;;;;;;82.00;48.48;;;;;;;10.75;75.09;96184.85;1844329;77;25320;-86
2021/05/02 00:23:25;;;;;;;81.20;49.33;;;;;;;10.76;75.12;96174.34;1851506;77;25581;-86
2021/05/02 00:25:53;;;;;;;86.25;50.52;;;;;;;10.70;75.09;96171.28;1829981;77;26265;-85
2021/05/02 00:28:20;;;;;;;72.40;46.80;;;;;;;10.70;75.22;96171.28;1835276;77;28525;-86
2021/05/02 00:30:47;;;;;;;75.75;46.90;;;;;;;10.70;75.29;96160.48;1827775;77;26130;-85
2021/05/02 00:33:15;;;;;;;78.47;48.52;;;;;;;10.65;75.27;96152.28;1851549;77;25669;-85
2021/05/02 00:35:44;;;;;;;70.80;45.92;;;;;;;10.53;75.31;96153.69;1838688;77;25679;-86
2021/05/02 00:38:12;;;;;;;74.27;46.50;;;;;;;10.44;75.47;96154.61;1844788;77;25910;-85
2021/05/02 00:40:42;;;;;;;75.00;46.92;;;;;;;10.40;75.57;96146.70;1835008;77;27383;-85
2021/05/02 00:43:17;;;;;;;74.10;47.40;;;;;;;10.42;75.65;96145.11;1825281;77;25744;-84
2021/05/02 00:46:08;;;;;;;74.82;46.63;;;;;;;10.39;75.61;96154.50;1851441;77;25954;-85
2021/05/02 00:48:53;;;;;;;73.60;45.78;;;;;;;10.36;75.60;96145.56;1840257;77;25834;-86
2021/05/02 00:51:23;;;;;;;73.07;44.42;;;;;;;10.29;75.63;96138.13;1841522;77;25774;-83
2021/05/02 00:54:16;;;;;;;70.37;44.05;;;;;;;10.23;75.69;96145.02;1831294;77;28440;-84
2021/05/02 00:56:55;;;;;;;74.05;43.55;;;;;;;10.19;75.71;96141.97;1821755;77;25754;-84
2021/05/02 00:59:53;;;;;;;70.17;44.33;;;;;;;10.18;75.74;96138.13;1814242;77;26409;-85
2021/05/02 01:02:22;;;;;;;73.30;42.88;;;;;;;10.17;75.77;96138.66;1831332;77;26440;-84
2021/05/02 01:04:52;;;;;;;71.62;44.67;;;;;;;10.08;75.71;96136.05;1850812;77;25821;-85
2021/05/02 01:07:21;;;;;;;72.90;44.33;;;;;;;10.07;75.81;96122.28;1829562;77;28461;-85
2021/05/02 01:09:49;;;;;;;69.20;43.33;;;;;;;10.11;75.90;96128.32;1851397;77;25704;-85
2021/05/02 01:12:20;;;;;;;70.47;41.45;;;;;;;10.10;75.79;96128.55;1811814;77;25729;-83
2021/05/02 01:14:53;;;;;;;68.37;41.28;;;;;;;10.04;75.77;96122.23;1795538;77;26874;-84
2021/05/02 01:17:21;;;;;;;66.05;41.48;;;;;;;10.04;75.84;96115.48;1801155;77;25816;-86
2021/05/02 01:19:49;;;;;;;64.45;40.98;;;;;;;10.04;75.78;96113.31;1837619;77;28496;-86
2021/05/02 01:22:19;;;;;;;70.17;42.35;;;;;;;10.03;75.76;96111.67;1825242;77;26114;-84
2021/05/02 01:24:50;;;;;;;65.03;40.40;;;;;;;9.97;75.82;96102.69;1850721;77;25343;-84
2021/05/02 01:27:31;;;;;;;73.17;42.93;;;;;;;9.96;75.93;96102.92;1843392;77;25702;-85
2021/05/02 01:30:01;;;;;;;69.42;40.83;;;;;;;9.99;76.03;96093.02;1824448;77;25813;-85
2021/05/02 01:32:30;;;;;;;67.92;40.60;;;;;;;9.95;76.11;96075.67;1827437;77;27559;-85
2021/05/02 01:34:58;;;;;;;71.85;42.33;;;;;;;9.89;76.11;96075.30;1838798;77;26105;-85
2021/05/02 01:37:25;;;;;;;70.78;42.75;;;;;;;9.89;76.22;96060.47;1809488;77;25671;-85
2021/05/02 01:39:53;;;;;;;71.22;39.65;;;;;;;9.93;76.27;96067.00;1819438;77;25849;-85
2021/05/02 01:42:20;;;;;;;62.83;38.73;;;;;;;9.94;76.27;96060.03;1842638;77;25846;-87
2021/05/02 01:44:48;;;;;;;62.83;40.12;;;;;;;9.95;76.27;96048.72;1842618;77;27466;-86
2021/05/02 01:47:20;;;;;;;65.40;39.92;;;;;;;9.96;76.35;96042.27;1826460;77;25743;-86
2021/05/02 01:49:52;;;;;;;72.40;42.85;;;;;;;9.99;76.38;96022.92;1824259;77;25812;-85
2021/05/02 01:52:19;;;;;;;70.37;40.85;;;;;;;9.99;76.35;96017.53;1825080;77;25826;-86
2021/05/02 01:54:47;;;;;;;65.67;38.55;;;;;;;9.99;76.32;96022.40;1802934;77;25754;-85
2021/05/02 01:57:28;;;;;;;63.95;39.25;;;;;;;10.01;76.35;96022.16;1821075;77;27487;-86
2021/05/02 01:59:59;;;;;;;63.63;38.92;;;;;;;10.03;76.42;96017.31;1825457;77;25823;-86
2021/05/02 02:02:28;;;;;;;58.70;38.37;;;;;;;10.02;76.47;96014.36;1823480;77;25741;-86
2021/05/02 02:04:58;;;;;;;65.60;38.08;;;;;;;10.05;76.48;96017.91;1803540;77;26366;-87
2021/05/02 02:07:26;;;;;;;62.45;38.63;;;;;;;10.01;76.43;96011.38;1842704;77;25734;-86
2021/05/02 02:09:54;;;;;;;64.80;40.80;;;;;;;9.99;76.47;96009.45;1835660;77;27544;-86
2021/05/02 02:12:21;;;;;;;63.80;38.80;;;;;;;10.01;76.57;96003.29;1797812;77;25799;-86
2021/05/02 02:14:52;;;;;;;62.17;38.40;;;;;;;10.04;76.61;95998.21;1833253;77;25630;-86
2021/05/02 02:17:20;;;;;;;65.40;39.53;;;;;;;10.07;76.62;95982.09;1797806;77;26507;-85
2021/05/02 02:19:48;;;;;;;67.40;40.17;;;;;;;10.08;76.54;95975.64;1812516;77;25738;-86
2021/05/02 02:22:18;;;;;;;65.92;39.42;;;;;;;10.10;76.61;95968.13;1838245;77;28453;-85
2021/05/02 02:24:50;;;;;;;65.28;40.10;;;;;;;10.13;76.56;95972.22;1838180;77;26256;-86
2021/05/02 02:27:21;;;;;;;64.50;38.78;;;;;;;10.13;76.57;95960.09;1807368;77;25638;-85
2021/05/02 02:29:49;;;;;;;70.12;41.80;;;;;;;10.08;76.57;95953.54;1824236;77;25799;-86
2021/05/02 02:32:18;;;;;;;71.92;41.05;;;;;;;10.09;76.69;95953.01;1823674;77;26472;-85
2021/05/02 02:34:49;;;;;;;61.63;39.27;;;;;;;10.13;76.75;95950.12;1805193;77;27539;-86
2021/05/02 02:37:20;;;;;;;73.87;43.45;;;;;;;10.17;76.72;95935.61;1816838;77;26197;-86
2021/05/02 02:40:00;;;;;;;70.87;41.68;;;;;;;10.19;76.75;95939.73;1836496;77;26286;-85
2021/05/02 02:42:29;;;;;;;69.80;42.35;;;;;;;10.19;76.83;95940.26;1796421;77;26333;-86
2021/05/02 02:44:59;;;;;;;65.85;41.92;;;;;;;10.21;76.86;95930.87;1830223;77;25900;-86
2021/05/02 02:47:49;;;;;;;70.47;41.65;;;;;;;10.20;76.85;95926.53;1812236;77;27533;-86
2021/05/02 02:50:19;;;;;;;66.25;39.55;;;;;;;10.17;76.92;95908.11;1818160;77;26579;-86
2021/05/02 02:52:56;;;;;;;71.30;41.92;;;;;;;10.18;76.92;95904.38;1845496;77;25847;-85
2021/05/02 02:55:26;;;;;;;68.35;41.45;;;;;;;10.20;76.93;95894.17;1842709;77;26519;-86
2021/05/02 02:58:01;;;;;;;68.42;40.58;;;;;;;10.22;76.92;95889.36;1842656;77;25807;-85
2021/05/02 03:00:33;;;;;;;71.22;41.58;;;;;;;10.24;76.93;95889.12;1828329;77;27418;-86
2021/05/02 03:03:14;;;;;;;;;;;;;;;10.24;76.91;95879.15;1813650;77;26386;-86
2021/05/02 03:05:43;;;;;;;67.90;38.10;;;;;;;10.26;77.04;95872.16;1832370;77;25764;-86
2021/05/02 03:08:12;;;;;;;68.00;39.90;;;;;;;10.29;76.92;95873.81;1809626;77;25574;-86
2021/05/02 03:10:42;;;;;;;68.90;40.43;;;;;;;10.33;76.96;95873.62;1847324;77;26610;-86
2021/05/02 03:13:12;;;;;;;64.90;39.67;;;;;;;10.32;76.96;95873.33;1845268;77;27481;-85
2021/05/02 03:15:40;;;;;;;64.30;40.17;;;;;;;10.28;76.91;95852.48;1833484;77;25697;-85
2021/05/02 03:18:25;;;;;;;76.95;42.25;;;;;;;10.30;76.96;95850.36;1819856;77;25757;-86
2021/05/02 03:21:06;;;;;;;70.15;41.25;;;;;;;10.30;77.00;95843.09;1844308;77;26385;-85
2021/05/02 03:23:42;;;;;;;67.25;39.53;;;;;;;10.33;77.09;95841.78;1827171;77;25685;-84
2021/05/02 03:26:12;;;;;;;75.83;40.58;;;;;;;10.32;77.08;95830.18;1818943;77;27467;-86
2021/05/02 03:28:59;;;;;;;77.95;39.78;;;;;;;10.34;77.15;95823.19;1842693;77;26115;-85
2021/05/02 03:31:35;;;;;;;79.17;41.08;;;;;;;10.29;77.25;95829.31;1842187;77;26329;-85
2021/05/02 03:34:07;;;;;;;86.50;42.78;;;;;;;10.27;77.42;95823.35;1842554;77;26273;-85
2021/05/02 03:36:49;;;;;;;92.75;44.55;;;;;;;10.25;77.48;95817.41;1842534;77;25697;-85
2021/05/02 03:39:17;;;;;;;92.85;44.48;;;;;;;10.30;77.55;95813.95;1842747;77;27491;-85
2021/05/02 03:41:44;;;;;;;88.55;41.58;;;;;;;10.32;77.66;95805.91;1839092;77;25729;-86
2021/05/02 03:44:12;;;;;;;86.60;42.03;;;;;;;10.35;77.70;95808.11;1810097;77;25769;-85
2021/05/02 03:46:39;;;;;;;84.70;41.28;;;;;;;10.37;77.72;95805.98;1840504;77;26522;-85
2021/05/02 03:49:09;;;;;;;87.25;43.05;;;;;;;10.39;77.66;95795.74;1846224;77;25680;-86
2021/05/02 03:51:39;;;;;;;92.60;42.27;;;;;;;10.40;77.69;95788.47;1825411;77;27553;-86
2021/05/02 03:54:07;;;;;;;83.95;40.95;;;;;;;10.42;77.70;95785.81;1842596;77;25750;-85
2021/05/02 03:56:45;;;;;;;80.72;42.43;;;;;;;10.43;77.70;95776.66;1825446;77;25687;-85
2021/05/02 03:59:19;;;;;;;82.15;40.73;;;;;;;10.47;77.70;95778.33;1823731;77;25783;-85
2021/05/02 04:02:01;;;;;;;78.45;42.50;;;;;;;10.48;77.70;95769.70;1811173;77;25753;-86
2021/05/02 04:04:32;;;;;;;81.92;41.70;;;;;;;10.51;77.67;95768.65;1823291;77;30561;-84
2021/05/02 04:07:09;;;;;;;77.75;40.67;;;;;;;10.54;77.64;95770.85;1840727;77;25708;-85
2021/05/02 04:09:37;;;;;;;79.65;42.45;;;;;;;10.52;77.57;95780.26;1818521;77;25791;-85
2021/05/02 04:12:07;;;;;;;78.90;43.10;;;;;;;10.50;77.61;95772.44;1842598;77;25721;-86
2021/05/02 04:14:34;;;;;;;73.10;39.45;;;;;;;10.51;77.65;95753.00;1829977;77;26243;-85
2021/05/02 04:17:08;;;;;;;74.70;39.90;;;;;;;10.52;77.69;95754.63;1831368;77;27487;-85
2021/05/02 04:19:39;;;;;;;76.57;42.08;;;;;;;10.54;77.67;95756.55;1830891;77;26030;-86
2021/05/02 04:22:07;;;;;;;75.95;40.50;;;;;;;10.56;77.63;95754.42;1807882;77;25700;-84
2021/05/02 04:24:35;;;;;;;79.67;41.42;;;;;;;10.55;77.64;95758.19;1830348;77;25744;-85
2021/05/02 04:27:04;;;;;;;83.10;40.50;;;;;;;10.53;77.65;95750.87;1825991;77;25803;-86
2021/05/02 04:29:34;;;;;;;81.10;43.35;;;;;;;10.52;77.71;95742.49;1847002;77;27480;-86
2021/05/02 04:32:03;;;;;;;76.57;42.55;;;;;;;10.51;77.75;95743.55;1842523;77;25854;-85
2021/05/02 04:34:30;;;;;;;76.82;41.85;;;;;;;10.50;77.79;95745.47;1828666;76;25783;-85
2021/05/02 04:36:59;;;;;;;79.45;41.10;;;;;;;10.51;77.80;95755.70;1823602;77;25669;-86
2021/05/02 04:39:27;;;;;;;88.27;42.73;;;;;;;10.54;77.84;95755.20;1815225;78;26533;-86
2021/05/02 04:41:55;;;;;;;84.30;42.27;;;;;;;10.56;77.80;95761.98;1824929;77;27478;-85
2021/05/02 04:44:24;;;;;;;76.80;40.17;;;;;;;10.59;77.79;95757.97;1825793;77;25769;-86
2021/05/02 04:46:51;;;;;;;78.62;41.92;;;;;;;10.55;77.76;95764.39;1810410;78;25782;-85
2021/05/02 04:49:20;;;;;;;79.03;41.02;;;;;;;10.56;77.82;95759.81;1825689;77;25481;-85
2021/05/02 04:51:48;;;;;;;77.08;39.75;;;;;;;10.60;77.82;95767.17;1817766;78;25801;-86
2021/05/02 04:54:16;;;;;;;73.05;41.35;;;;;;;10.56;77.76;95774.66;1803207;78;27491;-85
2021/05/02 04:56:43;;;;;;;73.40;40.50;;;;;;;10.55;77.82;95778.42;1807265;78;25739;-85
2021/05/02 04:59:10;;;;;;;73.37;40.83;;;;;;;10.55;77.87;95767.62;1823617;78;25828;-85
2021/05/02 05:01:40;;;;;;;76.30;40.67;;;;;;;10.57;77.87;95766.84;1824243;78;26335;-84
2021/05/02 05:04:07;;;;;;;66.62;37.85;;;;;;;10.58;77.91;95750.95;1824448;78;25650;-85
2021/05/02 05:06:36;;;;;;;74.45;40.58;;;;;;;10.55;77.94;95747.39;1826863;77;27422;-85
2021/05/02 05:09:06;;;;;;;69.42;40.50;;;;;;;10.55;78.00;95748.73;1810006;78;25750;-85
2021/05/02 05:11:36;;;;;;;73.22;41.85;;;;;;;10.53;78.07;95765.70;1814193;78;26390;-85
2021/05/02 05:14:04;;;;;;;75.52;43.58;;;;;;;10.51;78.10;95763.78;1822882;77;25686;-84
2021/05/02 05:16:31;;;;;;;77.40;40.80;;;;;;;10.56;78.19;95746.33;1823568;77;25506;-85
2021/05/02 05:18:58;;;;;;;72.27;40.60;;;;;;;10.57;78.24;95741.22;1823666;77;27692;-85
2021/05/02 05:21:26;;;;;;;76.37;42.93;;;;;;;10.50;78.22;95744.65;1813392;77;25291;-85
2021/05/02 05:23:53;;;;;;;75.65;42.23;;;;;;;10.50;78.35;95735.20;1790919;78;25624;-86
2021/05/02 05:26:20;;;;;;;74.72;44.25;;;;;;;10.48;78.42;95734.64;1800322;78;26468;-85
2021/05/02 05:28:48;;;;;;;71.40;42.00;;;;;;;10.47;78.43;95737.87;1823161;78;25807;-85
2021/05/02 05:31:15;;;;;;;73.30;43.68;;;;;;;10.48;78.48;95726.55;1804308;78;27548;-85
2021/05/02 05:33:43;;;;;;;76.97;42.73;;;;;;;10.50;78.56;95720.37;1807404;77;25661;-85
2021/05/02 05:36:10;;;;;;;75.62;43.73;;;;;;;10.51;78.61;95716.05;1842565;77;25701;-85
2021/05/02 05:38:37;;;;;;;71.42;41.60;;;;;;;10.52;78.64;95712.81;1842533;77;25730;-85
2021/05/02 05:41:05;;;;;;;75.30;43.50;;;;;;;10.51;78.63;95703.91;1842637;77;25678;-85
2021/05/02 05:43:32;;;;;;;87.27;49.73;;;;;;;10.54;78.71;95699.89;1836582;77;27549;-85
2021/05/02 05:45:59;;;;;;;84.45;47.55;;;;;;;10.55;78.79;95702.87;1812458;77;26362;-84
2021/05/02 05:48:27;;;;;;;78.42;45.60;;;;;;;10.54;78.81;95689.10;1831743;77;25644;-85
2021/05/02 05:50:55;;;;;;;82.12;46.85;;;;;;;10.53;78.77;95675.33;1819730;77;25693;-86
2021/05/02 05:53:23;;;;;;;77.55;44.70;;;;;;;10.56;78.83;95682.92;1834531;77;25706;-85
2021/05/02 05:55:56;;;;;;;78.42;44.77;;;;;;;10.55;78.81;95696.95;1822277;77;28447;-87
2021/05/02 05:58:19;;;;;;;78.35;43.63;;;;;;;10.58;78.82;95701.03;1796839;77;25777;-86
2021/05/02 06:00:47;;;;;;;75.60;43.55;;;;;;;10.62;78.80;95710.27;1834223;77;25669;-85
2021/05/02 06:03:14;;;;;;;81.45;43.70;;;;;;;10.66;78.78;95719.46;1846374;77;25686;-85
2021/05/02 06:05:41;;;;;;;95.38;50.58;;;;;;;10.68;78.78;95734.88;1844497;77;25696;-85
2021/05/02 06:08:08;;;;;;;72.37;41.83;;;;;;;10.70;78.73;95752.98;1849111;77;27543;-83
2021/05/02 06:10:36;;;;;;;70.83;44.23;;;;;;;10.67;78.46;95777.76;1814712;77;26278;-82
2021/05/02 06:13:03;;;;;;;65.75;39.03;;;;;;;10.60;78.63;95790.64;1807939;77;25690;-82
2021/05/02 06:15:31;;;;;;;59.40;34.05;;;;;;;10.57;78.80;95783.03;1834635;77;25762;-83
2021/05/02 06:17:58;;;;;;;53.80;30.70;;;;;;;10.54;78.78;95784.34;1846603;77;26276;-84
2021/05/02 06:20:26;;;;;;;50.78;30.02;;;;;;;10.54;78.96;95768.69;1818988;77;27481;-84
2021/05/02 06:22:54;;;;;;;49.27;30.40;;;;;;;10.54;79.03;95758.72;1846820;77;26108;-85
2021/05/02 06:25:21;;;;;;;41.50;27.32;;;;;;;10.53;79.12;95754.91;1846505;77;25673;-84
2021/05/02 06:27:49;;;;;;;45.35;28.80;;;;;;;10.52;79.22;95755.45;1834348;77;25715;-84
2021/05/02 06:30:17;;;;;;;46.08;28.70;;;;;;;10.55;79.26;95756.30;1804579;77;25745;-84
2021/05/02 06:32:44;;;;;;;45.45;27.93;;;;;;;10.59;79.38;95731.81;1836819;77;27536;-83
2021/05/02 06:35:12;;;;;;;45.17;28.20;;;;;;;10.59;79.42;95689.98;1801338;77;26034;-84
2021/05/02 06:37:39;;;;;;;47.55;29.82;;;;;;;10.62;79.50;95669.78;1801870;78;25868;-85
2021/05/02 06:40:08;;;;;;;55.08;32.00;;;;;;;10.64;79.59;95656.30;1821051;78;25789;-84
2021/05/02 06:42:35;;;;;;;51.55;30.95;;;;;;;10.71;79.63;95669.61;1806731;78;25811;-85
2021/05/02 06:45:04;;;;;;;44.30;26.93;;;;;;;10.79;79.75;95659.70;1806833;78;28558;-86
2021/05/02 06:47:32;;;;;;;43.78;26.02;;;;;;;10.89;79.89;95638.73;1820016;78;25721;-88
2021/05/02 06:49:59;;;;;;;46.33;29.48;;;;;;;10.96;79.97;95621.27;1820163;78;25862;-86
2021/05/02 06:52:26;;;;;;;44.80;31.73;;;;;;;11.09;80.06;95624.08;1804013;78;25589;-84
2021/05/02 06:54:55;;;;;;;38.83;25.45;;;;;;;11.21;80.11;95622.55;1817041;78;26396;-87
2021/05/02 06:57:23;;;;;;;34.65;23.30;;;;;;;11.31;80.08;95623.97;1818245;78;28524;-86
2021/05/02 06:59:50;;;;;;;28.90;21.42;;;;;;;11.42;80.09;95614.87;1802119;78;25714;-84
2021/05/02 07:02:18;;;;;;;27.32;17.87;;;;;;;11.49;80.05;95613.55;1815129;78;25710;-85
2021/05/02 07:04:45;;;;;;;22.95;17.07;;;;;;;11.58;80.04;95615.79;1811341;78;25866;-86
2021/05/02 07:07:12;;;;;;;23.92;18.50;;;;;;;11.67;80.09;95600.16;1821125;77;25684;-84
2021/05/02 07:09:40;;;;;;;26.33;18.70;;;;;;;11.80;80.23;95594.86;1821250;77;27616;-88
2021/05/02 07:12:07;;;;;;;21.50;16.52;;;;;;;11.99;80.41;95596.55;1821025;77;25651;-87
2021/05/02 07:14:35;;;;;;;26.15;17.20;;;;;;;12.16;80.40;95598.53;1813680;77;25785;-85
2021/05/02 07:17:02;;;;;;;23.80;16.77;;;;;;;12.28;80.13;95593.70;1814683;78;25769;-87
2021/05/02 07:19:30;;;;;;;22.02;16.32;;;;;;;12.48;80.08;95576.16;1821106;77;25693;-85
2021/05/02 07:22:02;;;;;;;19.60;14.95;;;;;;;12.66;79.98;95580.81;1821165;78;28398;-85
2021/05/02 07:24:27;;;;;;;21.90;16.67;;;;;;;12.87;80.00;95581.09;1815771;77;25805;-86
2021/05/02 07:26:54;;;;;;;23.60;17.75;;;;;;;13.06;79.98;95578.66;1811693;78;25853;-86
2021/05/02 07:29:22;;;;;;;24.67;18.20;;;;;;;13.23;79.84;95574.63;1821058;78;26614;-86
2021/05/02 07:31:49;;;;;;;20.32;16.85;;;;;;;13.41;79.84;95571.06;1821107;77;26217;-85
2021/05/02 07:34:17;;;;;;;21.57;16.85;;;;;;;13.54;79.59;95556.41;1814644;77;27551;-86
2021/05/02 07:36:44;;;;;;;25.57;18.10;;;;;;;13.72;79.45;95546.89;1821567;77;26101;-86
2021/05/02 07:39:11;;;;;;;22.10;16.48;;;;;;;14.01;79.58;95538.36;1847211;77;25667;-86
2021/05/02 07:41:39;;;;;;;20.12;13.22;;;;;;;14.47;79.73;95528.67;1817045;77;25954;-85
2021/05/02 07:44:07;;;;;;;15.13;11.75;;;;;;;15.02;79.43;95515.75;1842768;77;25720;-84
2021/05/02 07:46:34;;;;;;;14.23;11.28;;;;;;;15.61;79.01;95507.86;1834528;77;27482;-85
2021/05/02 07:49:02;;;;;;;14.00;11.15;;;;;;;16.20;78.33;95510.13;1826844;77;25724;-86
2021/05/02 07:51:29;;;;;;;15.15;10.75;;;;;;;16.76;77.74;95503.37;1844777;77;25728;-85
2021/05/02 07:53:56;;;;;;;15.05;10.15;;;;;;;17.26;76.81;95505.01;1842630;77;26313;-86
2021/05/02 07:56:24;;;;;;;16.27;9.93;;;;;;;17.70;75.90;95485.95;1828418;77;26067;-84
2021/05/02 07:58:52;;;;;;;10.98;8.48;;;;;;;18.13;75.45;95490.52;1834493;77;28460;-84
2021/05/02 08:01:19;;;;;;;12.25;8.38;;;;;;;18.58;74.84;95480.55;1837089;77;26043;-85
2021/05/02 08:03:46;;;;;;;12.50;4.92;;;;;;;19.00;74.04;95484.17;1841467;77;25759;-85
2021/05/02 08:06:14;;;;;;;6.03;4.60;;;;;;;19.43;73.25;95487.75;1846163;77;25713;-85
2021/05/02 08:08:41;;;;;;;6.03;4.85;;;;;;;19.67;72.17;95477.83;1841169;77;25781;-85
2021/05/02 08:11:08;;;;;;;5.05;3.95;;;;;;;19.97;71.90;95466.58;1820135;77;27618;-85
2021/05/02 08:13:36;;;;;;;3.25;2.83;;;;;;;20.40;71.51;95462.61;1846754;77;25713;-85
2021/05/02 08:16:04;;;;;;;4.17;2.70;;;;;;;20.77;71.05;95474.89;1842868;77;25742;-87
2021/05/02 08:18:32;;;;;;;2.70;2.50;;;;;;;21.11;70.11;95468.00;1846544;77;25710;-86
2021/05/02 08:20:59;;;;;;;3.62;2.70;;;;;;;21.60;69.88;95471.88;1818787;77;26126;-87
2021/05/02 08:23:26;;;;;;;4.20;2.27;;;;;;;21.95;68.47;95456.86;1842702;77;27488;-92
2021/05/02 08:25:54;;;;;;;3.20;2.27;;;;;;;21.64;66.64;95474.17;1843570;77;26105;-89
2021/05/02 08:28:21;;;;;;;6.30;2.02;;;;;;;21.64;66.64;95474.17;1831016;77;25693;-90
2021/05/02 08:30:49;;;;;;;2.50;1.98;;;;;;;21.88;65.75;95471.66;1836985;77;25729;-87
2021/05/02 08:33:16;;;;;;;3.80;2.00;;;;;;;22.31;65.67;95470.11;1821594;77;26003;-88
2021/05/02 08:35:47;;;;;;;4.03;1.85;;;;;;;22.86;64.93;95466.34;1844609;77;27499;-89
2021/05/02 08:38:12;;;;;;;4.22;2.00;;;;;;;23.03;63.94;95464.83;1842406;77;26121;-90
2021/05/02 08:40:40;;;;;;;4.45;2.30;;;;;;;22.84;62.68;95469.98;1843200;77;25768;-88
2021/05/02 08:43:09;;;;;;;3.75;2.50;;;;;;;22.62;62.64;95470.53;1832987;77;25718;-88
2021/05/02 08:45:37;;;;;;;6.30;2.12;;;;;;;22.40;61.69;95473.60;1807762;77;25689;-88
2021/05/02 08:48:06;;;;;;;8.20;2.40;;;;;;;22.14;61.83;95475.13;1818958;77;27459;-87
2021/05/02 08:50:34;;;;;;;9.30;2.77;;;;;;;21.87;61.77;95485.96;1820487;77;25837;-87
2021/05/02 08:53:06;;;;;;;5.03;2.92;;;;;;;21.67;61.59;95493.56;1836682;77;25914;-87
2021/05/02 08:55:33;;;;;;;;;;;;;;;21.38;61.38;95494.27;1819843;77;25810;-88
2021/05/02 08:58:01;;;;;;;6.97;3.00;;;;;;;20.90;62.36;95501.31;1829470;77;26052;-89
2021/05/02 09:00:29;;;;;;;7.10;3.50;;;;;;;20.90;62.36;95501.31;1736531;80;28855;-89
2021/05/02 09:02:57;;;;;;;5.33;3.20;;;;;;;20.75;62.50;95494.95;1797552;77;25835;-89
2021/05/02 09:05:24;;;;;;;10.15;3.95;;;;;;;20.55;62.26;95498.31;1811884;77;25751;-88
2021/05/02 09:07:53;;;;;;;7.67;3.40;;;;;;;20.46;62.32;95492.83;1846217;77;25729;-87
2021/05/02 09:10:22;;;;;;;4.90;3.60;;;;;;;20.30;62.63;95492.44;1830390;77;26175;-87
2021/05/02 09:13:01;;;;;;;7.05;3.62;;;;;;;20.21;63.02;95494.35;1830069;77;28478;-89
2021/05/02 09:15:29;;;;;;;10.35;3.87;;;;;;;20.06;62.78;95493.42;1842893;77;25774;-88
2021/05/02 09:18:00;;;;;;;7.12;3.70;;;;;;;19.91;63.33;95493.31;1834632;77;25756;-89
2021/05/02 09:20:51;;;;;;;8.83;4.00;;;;;;;19.74;63.70;95488.56;1829433;77;26361;-87
2021/05/02 09:23:18;;;;;;;10.90;4.90;;;;;;;19.62;64.07;95493.82;1839715;77;25740;-89
2021/05/02 09:25:54;;;;;;;9.45;4.10;;;;;;;19.49;64.03;95499.38;1840564;77;28478;-86
2021/05/02 09:28:43;;;;;;;12.55;4.83;;;;;;;19.36;64.00;95496.95;1836428;77;25811;-88
2021/05/02 09:31:20;;;;;;;8.98;4.45;;;;;;;19.24;64.24;95538.55;1842090;77;46936;-88
2021/05/02 09:33:49;;;;;;;7.08;2.50;;;;;;;18.89;64.07;95568.92;1833665;77;25719;-89
2021/05/02 09:36:19;;;;;;;11.88;3.77;;;;;;;18.49;64.29;95567.84;1850296;77;25907;-86
2021/05/02 09:38:48;;;;;;;10.30;2.83;;;;;;;18.18;64.74;95578.61;1848027;77;28403;-89
2021/05/02 09:41:18;;;;;;;10.80;4.33;;;;;;;17.84;65.12;95572.73;1837109;77;26052;-88
2021/05/02 09:43:52;;;;;;;8.05;4.25;;;;;;;17.73;65.44;95576.76;1839996;77;25823;-86
2021/05/02 09:46:28;;;;;;;6.28;3.62;;;;;;;17.63;65.60;95581.27;1832015;77;25702;-85
2021/05/02 09:49:18;;;;;;;6.53;3.42;;;;;;;17.53;65.93;95586.88;1851443;77;25859;-85
2021/05/02 09:51:51;;;;;;;5.85;3.70;;;;;;;17.38;65.92;95592.61;1851197;77;27480;-85
2021/05/02 09:54:26;;;;;;;6.85;2.85;;;;;;;17.26;66.19;95587.63;1842760;77;26222;-83
2021/05/02 09:56:55;;;;;;;4.03;2.58;;;;;;;17.15;66.34;95597.04;1837177;77;26349;-85
2021/05/02 09:59:33;;;;;;;6.30;2.80;;;;;;;17.07;66.64;95596.91;1848817;77;25813;-86
2021/05/02 10:02:17;;;;;;;5.47;3.20;;;;;;;17.07;66.63;95603.72;1836016;77;26282;-85
2021/05/02 10:04:50;;;;;;;3.87;3.17;;;;;;;17.07;66.67;95596.91;1831297;77;28562;-83
2021/05/02 10:07:21;;;;;;;5.87;3.67;;;;;;;17.14;66.49;95617.26;1850833;77;26123;-84
2021/05/02 10:09:50;;;;;;;6.00;4.15;;;;;;;17.56;66.44;95604.56;1822339;77;25666;-85
2021/05/02 10:12:18;;;;;;;7.55;5.17;;;;;;;18.08;65.92;95635.34;1821614;77;25757;-84
2021/05/02 10:14:48;;;;;;;9.00;4.67;;;;;;;18.46;64.37;95633.23;1848369;77;25850;-82
2021/05/02 10:17:16;;;;;;;6.08;5.03;;;;;;;18.88;64.17;95630.17;1833545;77;27535;-83
2021/05/02 10:19:43;;;;;;;6.85;4.70;;;;;;;19.21;63.16;95635.45;1811936;77;25812;-84
2021/05/02 10:22:12;;;;;;;6.95;5.00;;;;;;;19.51;61.92;95653.93;1821536;77;26238;-85
2021/05/02 10:24:41;;;;;;;9.13;5.37;;;;;;;19.62;60.69;95671.72;1844269;77;25769;-87
2021/05/02 10:27:12;;;;;;;6.40;5.05;;;;;;;19.77;61.02;95653.56;1841144;77;25903;-84
2021/05/02 10:29:42;;;;;;;6.45;5.42;;;;;;;20.01;60.17;95655.16;1811242;77;27540;-85
2021/05/02 10:32:13;;;;;;;10.25;6.33;;;;;;;20.37;60.48;95679.15;1830675;77;26117;-84
2021/05/02 10:34:43;;;;;;;9.75;6.72;;;;;;;20.43;58.07;95686.09;1822409;77;25690;-85
2021/05/02 10:37:28;;;;;;;6.20;5.15;;;;;;;20.35;57.24;95697.83;1849737;77;26512;-87
2021/05/02 10:40:15;;;;;;;6.65;5.53;;;;;;;20.28;55.30;95702.13;1826637;77;25836;-87
2021/05/02 10:42:50;;;;;;;5.10;4.55;;;;;;;19.75;54.29;95713.28;1835028;77;28350;-86
2021/05/02 10:45:33;;;;;;;6.75;5.33;;;;;;;19.40;53.97;95709.98;1857922;77;26317;-86
2021/05/02 10:48:25;;;;;;;;;;;;;;;19.11;54.48;95704.05;1860895;77;25696;-83
2021/05/02 10:50:56;;;;;;;7.22;5.80;;;;;;;18.78;54.39;95705.56;1857985;77;25886;-86
2021/05/02 10:53:26;;;;;;;6.22;5.55;;;;;;;18.57;53.82;95716.62;1858074;77;25862;-88
2021/05/02 10:56:08;;;;;;;6.75;5.60;;;;;;;18.49;54.95;95729.59;1858119;77;27460;-84
2021/05/02 10:58:40;;;;;;;7.25;5.78;;;;;;;18.14;54.36;95734.59;1858051;77;25681;-83
2021/05/02 11:01:27;;;;;;;7.22;4.85;;;;;;;17.77;55.19;95745.03;1858212;77;25757;-84
2021/05/02 11:03:54;;;;;;;6.42;4.90;;;;;;;17.52;54.67;95739.38;1837892;77;25869;-85
2021/05/02 11:06:50;;;;;;;4.45;4.03;;;;;;;17.14;54.79;95738.58;1856904;77;25762;-84
2021/05/02 11:09:18;;;;;;;6.55;4.65;;;;;;;16.95;55.09;95744.53;1858044;77;27542;-84
2021/05/02 11:11:49;;;;;;;7.15;4.75;;;;;;;16.60;54.14;95734.84;1853058;77;26155;-83
2021/05/02 11:14:21;;;;;;;6.85;4.92;;;;;;;16.53;54.75;95733.02;1857843;77;25735;-83
2021/05/02 11:16:56;;;;;;;4.95;4.40;;;;;;;16.77;54.52;95769.29;1857992;77;25887;-83
2021/05/02 11:19:35;;;;;;;5.60;4.20;;;;;;;17.03;53.83;95724.80;1850811;77;25705;-83
2021/05/02 11:22:08;;;;;;;6.45;4.65;;;;;;;17.35;54.00;95741.83;1858024;77;28418;-86
2021/05/02 11:24:49;;;;;;;4.30;3.75;;;;;;;17.57;52.78;95741.23;1857756;77;25805;-85
2021/05/02 11:27:28;;;;;;;7.05;4.75;;;;;;;17.77;52.92;95756.50;1842135;77;25786;-85
2021/05/02 11:30:03;;;;;;;8.23;4.20;;;;;;;18.02;51.77;95747.09;1831262;77;26635;-85
2021/05/02 11:32:40;;;;;;;4.50;3.45;;;;;;;18.16;50.79;95753.41;1824325;77;25316;-85
2021/05/02 11:35:12;;;;;;;3.80;3.42;;;;;;;18.34;51.74;95753.93;1832166;77;28534;-87
2021/05/02 11:38:00;;;;;;;3.87;3.33;;;;;;;18.63;51.81;95770.89;1818141;77;25719;-87
2021/05/02 11:40:35;;;;;;;7.08;3.92;;;;;;;19.10;52.65;95773.53;1825306;77;25772;-86